TimeEST,TemperatureF,Dew PointF,Humidity,Sea Level PressureIn,VisibilityMPH,Wind Direction,Wind SpeedMPH,Gust SpeedMPH,PrecipitationIn,Events,Conditions,WindDirDegrees,DateUTC
12:56 AM,18.0,3.9,54,30.25,9.0,NW,9.2,-,N/A,,Clear,320,2014-02-11 05:56:00
1:56 AM,16.0,5.0,62,30.27,9.0,WNW,4.6,-,N/A,,Clear,300,2014-02-11 06:56:00
2:56 AM,15.1,5.0,64,30.26,8.0,North,3.5,-,N/A,,Clear,10,2014-02-11 07:56:00
3:56 AM,12.9,5.0,71,30.27,8.0,NW,3.5,-,N/A,,Clear,310,2014-02-11 08:56:00
4:56 AM,12.0,3.9,70,30.28,8.0,NW,6.9,-,N/A,,Clear,320,2014-02-11 09:56:00
5:56 AM,15.1,5.0,64,30.29,8.0,NW,8.1,-,N/A,,Clear,320,2014-02-11 10:56:00
6:56 AM,12.9,5.0,71,30.31,7.0,NNW,6.9,-,N/A,,Clear,340,2014-02-11 11:56:00
7:56 AM,15.1,5.0,64,30.33,7.0,NNW,9.2,-,N/A,,Clear,330,2014-02-11 12:56:00
8:56 AM,18.0,6.1,60,30.35,7.0,NNW,6.9,-,N/A,,Clear,330,2014-02-11 13:56:00
9:56 AM,19.9,6.1,55,30.35,8.0,NNW,11.5,18.4,N/A,,Clear,340,2014-02-11 14:56:00
10:56 AM,21.9,5.0,48,30.34,9.0,NNW,9.2,-,N/A,,Clear,340,2014-02-11 15:56:00
11:56 AM,23.0,5.0,46,30.32,9.0,NW,11.5,17.3,N/A,,Clear,310,2014-02-11 16:56:00
12:56 PM,24.1,3.9,42,30.29,9.0,NNW,16.1,23.0,N/A,,Clear,330,2014-02-11 17:56:00
1:56 PM,25.0,3.9,41,30.26,9.0,NW,15.0,24.2,N/A,,Clear,320,2014-02-11 18:56:00
2:56 PM,25.0,3.9,41,30.27,9.0,NNW,10.4,20.7,N/A,,Clear,330,2014-02-11 19:56:00
3:56 PM,25.0,3.0,39,30.30,9.0,NW,12.7,-,N/A,,Clear,320,2014-02-11 20:56:00
4:56 PM,23.0,3.0,42,30.31,9.0,NW,12.7,-,N/A,,Clear,320,2014-02-11 21:56:00
5:56 PM,21.0,3.0,46,30.34,10.0,NNW,6.9,-,N/A,,Clear,330,2014-02-11 22:56:00
6:56 PM,19.9,3.0,48,30.37,10.0,NNW,4.6,-,N/A,,Clear,330,2014-02-11 23:56:00
7:56 PM,19.0,1.9,47,30.40,9.0,NW,8.1,-,N/A,,Clear,320,2014-02-12 00:56:00
8:56 PM,18.0,1.9,50,30.41,10.0,NNW,10.4,-,N/A,,Clear,340,2014-02-12 01:56:00
9:56 PM,17.1,1.9,52,30.43,9.0,NNW,9.2,-,N/A,,Clear,330,2014-02-12 02:56:00
10:56 PM,16.0,1.9,54,30.43,10.0,NNW,10.4,-,N/A,,Clear,330,2014-02-12 03:56:00
11:56 PM,15.1,1.9,56,30.44,10.0,NW,12.7,-,N/A,,Clear,320,2014-02-12 04:56:00